Time;durP1;ratioP1;P1;durP2;ratioP2;P2;SDS_P1;SDS_P2;PMS_P1;PMS_P2;Temp;Humidity;BMP_temperature;BMP_pressure;BME280_temperature;BME280_humidity;BME280_pressure;Samples;Min_cycle;Max_cycle;Signal;HPM_P1;HPM_P2
2023/08/26 00:00:39;;;;;;;22.27;11.15;;;18.70;99.90;;;;;;5093351;28;20481;-62
2023/08/26 00:03:06;;;;;;;14.65;9.77;;;18.80;99.90;;;;;;5072455;28;20378;-63
2023/08/26 00:05:33;;;;;;;13.82;9.88;;;18.70;99.90;;;;;;5081904;28;20396;-61
2023/08/26 00:08:01;;;;;;;14.80;9.82;;;18.70;99.90;;;;;;5092841;28;20036;-62
2023/08/26 00:10:27;;;;;;;15.10;9.43;;;18.60;99.90;;;;;;5091393;28;20124;-62
2023/08/26 00:12:54;;;;;;;13.98;9.10;;;18.50;99.90;;;;;;5084508;28;20044;-62
2023/08/26 00:15:22;;;;;;;12.93;8.90;;;18.50;99.90;;;;;;5080693;28;20127;-63
2023/08/26 00:17:49;;;;;;;13.90;9.05;;;18.50;99.90;;;;;;5087124;28;20126;-62
2023/08/26 00:20:16;;;;;;;12.48;8.85;;;18.40;99.90;;;;;;5085462;28;20528;-63
2023/08/26 00:22:43;;;;;;;;;;;18.40;99.90;;;;;;5085823;28;20044;-62
2023/08/26 00:25:10;;;;;;;14.27;9.02;;;18.40;99.90;;;;;;5085265;28;19943;-62
2023/08/26 00:27:37;;;;;;;16.17;8.45;;;18.50;99.90;;;;;;5087102;28;20036;-62
2023/08/26 00:30:04;;;;;;;10.30;7.93;;;18.50;99.90;;;;;;5080193;28;20036;-61
2023/08/26 00:32:31;;;;;;;15.20;8.23;;;18.50;99.90;;;;;;5068793;28;20055;-62
2023/08/26 00:34:58;;;;;;;11.95;8.85;;;18.50;99.90;;;;;;5066015;28;20078;-62
2023/08/26 00:37:27;;;;;;;11.20;8.85;;;18.50;99.90;;;;;;5072010;28;20497;-61
2023/08/26 00:39:54;;;;;;;13.15;9.00;;;18.50;99.90;;;;;;5073363;28;20074;-62
2023/08/26 00:42:20;;;;;;;15.20;9.93;;;18.60;99.90;;;;;;5074942;28;20130;-62
2023/08/26 00:44:47;;;;;;;14.02;9.93;;;18.60;99.90;;;;;;5065087;28;20070;-61
2023/08/26 00:47:14;;;;;;;12.52;9.50;;;18.60;99.90;;;;;;5069994;28;20054;-62
2023/08/26 00:49:41;;;;;;;18.98;9.65;;;18.60;99.90;;;;;;5072232;28;20051;-62
2023/08/26 00:52:08;;;;;;;11.68;8.93;;;18.60;99.90;;;;;;5084407;28;20400;-62
2023/08/26 00:54:35;;;;;;;13.63;8.80;;;18.60;99.90;;;;;;5066316;28;20048;-63
2023/08/26 00:57:05;;;;;;;14.60;9.30;;;18.60;99.90;;;;;;5072103;28;20507;-62
2023/08/26 00:59:32;;;;;;;10.90;8.60;;;18.60;99.90;;;;;;5092340;28;20044;-61
2023/08/26 01:01:59;;;;;;;;;;;18.60;99.90;;;;;;5092512;28;20047;-62
2023/08/26 01:04:27;;;;;;;12.80;8.18;;;18.60;99.90;;;;;;5073121;28;19919;-62
2023/08/26 01:06:54;;;;;;;11.43;8.48;;;18.50;99.90;;;;;;5070934;28;20139;-62
2023/08/26 01:09:21;;;;;;;13.25;8.65;;;18.50;99.90;;;;;;5067589;28;20331;-62
2023/08/26 01:12:01;;;;;;;;;;;18.50;99.90;;;;;;5071952;28;20059;-61
2023/08/26 01:14:34;;;;;;;11.88;7.70;;;18.40;99.90;;;;;;5073650;28;19920;-61
2023/08/26 01:17:03;;;;;;;14.02;8.60;;;18.50;99.90;;;;;;5090879;28;20047;-61
2023/08/26 01:19:34;;;;;;;12.98;8.35;;;18.40;99.90;;;;;;5066266;28;20098;-61
2023/08/26 01:22:08;;;;;;;12.88;9.30;;;18.30;99.90;;;;;;5061073;28;20131;-61
2023/08/26 01:24:36;;;;;;;14.32;8.68;;;18.30;99.90;;;;;;5069349;28;20040;-61
2023/08/26 01:27:03;;;;;;;14.00;8.40;;;18.40;99.90;;;;;;5061343;28;20413;-61
2023/08/26 01:29:30;;;;;;;14.85;8.80;;;18.40;99.90;;;;;;5068464;28;20072;-61
2023/08/26 01:32:35;;;;;;;14.07;9.13;;;18.30;99.90;;;;;;5073584;28;20093;-61
2023/08/26 01:35:07;;;;;;;19.38;9.27;;;18.30;99.90;;;;;;5082986;28;20485;-62
2023/08/26 01:37:37;;;;;;;13.45;9.85;;;18.40;99.90;;;;;;5064582;28;20040;-61
2023/08/26 01:40:06;;;;;;;13.07;9.60;;;18.40;99.90;;;;;;5064842;28;20051;-61
2023/08/26 01:42:36;;;;;;;11.13;8.90;;;18.30;99.90;;;;;;5091583;28;20036;-60
2023/08/26 01:45:05;;;;;;;13.70;9.55;;;18.30;99.90;;;;;;5083228;28;20071;-61
2023/08/26 01:47:32;;;;;;;16.67;9.43;;;18.30;99.90;;;;;;5067955;28;20040;-62
2023/08/26 01:49:59;;;;;;;11.98;8.77;;;18.30;99.90;;;;;;5063300;28;20050;-61
2023/08/26 01:52:26;;;;;;;14.23;9.45;;;18.30;99.90;;;;;;5061412;28;20059;-61
2023/08/26 01:54:53;;;;;;;16.70;10.00;;;18.30;99.90;;;;;;5078821;28;20497;-61
2023/08/26 01:57:20;;;;;;;15.35;9.80;;;18.30;99.90;;;;;;5087845;28;20424;-61
2023/08/26 01:59:46;;;;;;;15.77;10.07;;;18.30;99.90;;;;;;5071718;28;20426;-61
2023/08/26 02:02:14;;;;;;;14.82;10.70;;;18.10;99.90;;;;;;5061643;28;20659;-61
2023/08/26 02:04:41;;;;;;;15.80;11.40;;;18.20;99.90;;;;;;5070844;28;20045;-62
2023/08/26 02:07:07;;;;;;;15.18;11.48;;;18.20;99.90;;;;;;5063440;28;20044;-62
2023/08/26 02:09:34;;;;;;;16.80;11.38;;;18.20;99.90;;;;;;5065912;28;20040;-61
2023/08/26 02:12:01;;;;;;;16.00;10.70;;;18.20;99.90;;;;;;5068163;28;20051;-61
2023/08/26 02:14:28;;;;;;;14.48;10.25;;;18.20;99.90;;;;;;5067259;28;20044;-61
2023/08/26 02:16:54;;;;;;;16.95;9.85;;;18.20;99.90;;;;;;5063929;28;20040;-61
2023/08/26 02:19:22;;;;;;;18.23;9.50;;;18.20;99.90;;;;;;5086823;28;20439;-61
2023/08/26 02:21:49;;;;;;;13.95;9.85;;;18.20;99.90;;;;;;5064333;28;20072;-61
2023/08/26 02:24:21;;;;;;;15.73;9.65;;;18.10;99.90;;;;;;5064629;28;20036;-61
2023/08/26 02:26:48;;;;;;;13.73;10.82;;;18.10;99.90;;;;;;5064080;28;20065;-61
2023/08/26 02:29:15;;;;;;;17.90;12.20;;;18.10;99.90;;;;;;5081166;28;20040;-61
2023/08/26 02:31:42;;;;;;;20.85;14.07;;;18.10;99.90;;;;;;5060452;28;20044;-60
2023/08/26 02:34:08;;;;;;;24.50;15.88;;;18.20;99.90;;;;;;5064250;28;20044;-61
2023/08/26 02:36:35;;;;;;;20.55;13.32;;;18.10;99.90;;;;;;5063825;28;20143;-61
2023/08/26 02:39:02;;;;;;;20.00;11.00;;;18.10;99.90;;;;;;5062368;28;20079;-62
2023/08/26 02:41:29;;;;;;;14.77;10.18;;;18.10;99.90;;;;;;5066426;28;20060;-61
2023/08/26 02:43:56;;;;;;;14.10;10.20;;;18.00;99.90;;;;;;5060715;28;20055;-61
2023/08/26 02:46:22;;;;;;;18.73;10.45;;;17.80;99.90;;;;;;5083309;28;20033;-61
2023/08/26 02:48:50;;;;;;;18.02;10.73;;;17.80;99.90;;;;;;5060778;28;20051;-61
2023/08/26 02:51:17;;;;;;;16.52;10.80;;;17.70;99.90;;;;;;5064032;28;20044;-61
2023/08/26 02:53:44;;;;;;;16.70;11.32;;;17.70;99.90;;;;;;5071293;28;20050;-61
2023/08/26 02:56:12;;;;;;;18.48;11.38;;;17.70;99.90;;;;;;5064244;28;20042;-62
2023/08/26 02:58:40;;;;;;;16.00;11.30;;;17.70;99.90;;;;;;5063275;28;20516;-61
2023/08/26 03:01:07;;;;;;;15.90;10.85;;;17.80;99.90;;;;;;5067322;28;20047;-61
2023/08/26 03:03:34;;;;;;;17.98;10.43;;;17.70;99.90;;;;;;5082087;28;20404;-61
2023/08/26 03:06:02;;;;;;;14.10;9.00;;;17.80;99.90;;;;;;5063475;28;20071;-61
2023/08/26 03:08:29;;;;;;;14.73;10.23;;;17.70;99.90;;;;;;5080997;28;20451;-62
2023/08/26 03:10:57;;;;;;;13.85;10.20;;;17.70;99.90;;;;;;5091055;28;20050;-61
2023/08/26 03:13:24;;;;;;;12.75;9.18;;;17.70;99.90;;;;;;5069333;28;20133;-62
2023/08/26 03:15:50;;;;;;;18.23;9.63;;;17.70;99.90;;;;;;5055889;28;20409;-62
2023/08/26 03:18:17;;;;;;;12.90;8.93;;;17.60;99.90;;;;;;5075328;28;20485;-61
2023/08/26 03:20:44;;;;;;;14.73;9.65;;;17.60;99.90;;;;;;5072969;28;20058;-61
2023/08/26 03:23:11;;;;;;;12.52;9.57;;;17.60;99.90;;;;;;5085455;28;20042;-62
2023/08/26 03:25:39;;;;;;;11.63;9.82;;;17.70;99.90;;;;;;5091674;28;20063;-62
2023/08/26 03:28:08;;;;;;;12.27;9.68;;;17.70;99.90;;;;;;5084594;28;20040;-61
2023/08/26 03:30:36;;;;;;;13.80;10.15;;;17.70;99.90;;;;;;5074901;28;20501;-61
2023/08/26 03:33:04;;;;;;;12.82;9.40;;;17.70;99.90;;;;;;5075339;28;20122;-61
2023/08/26 03:35:31;;;;;;;14.63;9.88;;;17.70;99.90;;;;;;5068448;28;20041;-61
2023/08/26 03:37:58;;;;;;;15.07;10.23;;;17.70;99.90;;;;;;5064637;28;20050;-62
2023/08/26 03:40:25;;;;;;;15.45;10.30;;;17.80;99.90;;;;;;5075157;28;20036;-61
2023/08/26 03:42:51;;;;;;;21.42;11.07;;;17.80;99.90;;;;;;5072816;28;20489;-61
2023/08/26 03:45:18;;;;;;;14.70;10.10;;;17.70;99.90;;;;;;5067063;28;20421;-61
2023/08/26 03:47:47;;;;;;;14.25;10.43;;;17.70;99.90;;;;;;5066859;28;20045;-62
2023/08/26 03:50:13;;;;;;;16.08;10.18;;;17.80;99.90;;;;;;5067141;28;20043;-62
2023/08/26 03:52:41;;;;;;;13.55;9.98;;;17.80;99.90;;;;;;5073016;28;20047;-62
2023/08/26 03:55:08;;;;;;;15.07;10.70;;;17.80;99.90;;;;;;5068771;28;20133;-62
2023/08/26 03:57:35;;;;;;;17.63;11.13;;;17.90;99.90;;;;;;5061698;28;20292;-62
2023/08/26 04:00:02;;;;;;;15.93;9.40;;;17.90;99.90;;;;;;5070037;28;20052;-62
2023/08/26 04:02:29;;;;;;;;;;;17.80;99.90;;;;;;5086588;28;20029;-61
2023/08/26 04:04:56;;;;;;;12.02;9.50;;;17.70;99.90;;;;;;5068157;28;19920;-62
2023/08/26 04:07:23;;;;;;;12.60;9.35;;;17.60;99.90;;;;;;5070289;28;20090;-61
2023/08/26 04:09:49;;;;;;;12.55;9.10;;;17.70;99.90;;;;;;5088649;28;20112;-61
2023/08/26 04:12:16;;;;;;;13.68;8.05;;;17.70;99.90;;;;;;5066306;28;20157;-62
2023/08/26 04:14:45;;;;;;;14.23;9.10;;;17.60;99.90;;;;;;5065864;28;20050;-62
2023/08/26 04:17:12;;;;;;;11.85;8.75;;;17.60;99.90;;;;;;5073738;28;20109;-61
2023/08/26 04:19:40;;;;;;;18.63;9.40;;;17.60;99.90;;;;;;5074776;28;20047;-62
2023/08/26 04:22:08;;;;;;;17.08;9.63;;;17.70;99.90;;;;;;5070917;28;20044;-61
2023/08/26 04:24:34;;;;;;;18.33;10.13;;;17.70;99.90;;;;;;5061846;28;20047;-61
2023/08/26 04:27:01;;;;;;;15.35;9.57;;;17.70;99.90;;;;;;5068477;28;20127;-60
2023/08/26 04:29:28;;;;;;;15.07;9.68;;;17.70;99.90;;;;;;5068271;28;20044;-60
2023/08/26 04:31:55;;;;;;;14.20;10.40;;;17.60;99.90;;;;;;5091655;28;20036;-61
2023/08/26 04:34:22;;;;;;;14.00;9.15;;;17.70;99.90;;;;;;5074571;28;20557;-61
2023/08/26 04:36:49;;;;;;;16.90;10.00;;;17.60;99.90;;;;;;5079906;28;20062;-60
2023/08/26 04:39:19;;;;;;;13.23;10.02;;;17.70;99.90;;;;;;5065694;28;20051;-61
2023/08/26 04:41:46;;;;;;;15.07;9.85;;;17.70;99.90;;;;;;5065752;28;20048;-61
2023/08/26 04:44:15;;;;;;;14.70;10.23;;;17.90;99.90;;;;;;5073115;28;20048;-60
2023/08/26 04:46:42;;;;;;;13.80;10.23;;;17.90;99.90;;;;;;5091657;28;20059;-62
2023/08/26 04:49:09;;;;;;;17.85;11.32;;;17.90;99.90;;;;;;5070500;28;20051;-62
2023/08/26 04:51:38;;;;;;;15.57;10.85;;;18.00;99.90;;;;;;5065901;28;20036;-62
2023/08/26 04:54:05;;;;;;;17.95;10.77;;;18.00;99.90;;;;;;5086760;28;20048;-60
2023/08/26 04:56:32;;;;;;;15.15;10.02;;;18.10;99.90;;;;;;5050867;28;20047;-62
2023/08/26 04:58:58;;;;;;;13.30;9.05;;;18.10;99.90;;;;;;5064421;28;20054;-62
2023/08/26 05:01:25;;;;;;;10.98;8.85;;;18.20;99.90;;;;;;5065305;28;20048;-62
2023/08/26 05:03:52;;;;;;;20.52;10.68;;;18.10;99.90;;;;;;5063254;28;20047;-62
2023/08/26 05:06:20;;;;;;;19.08;11.25;;;18.20;99.90;;;;;;5079521;28;20123;-62
2023/08/26 05:08:47;;;;;;;23.05;12.82;;;18.20;99.90;;;;;;5061460;28;20052;-61
2023/08/26 05:11:14;;;;;;;20.27;12.50;;;18.20;99.90;;;;;;5086184;28;20044;-62
2023/08/26 05:13:41;;;;;;;17.02;11.30;;;18.20;99.90;;;;;;5061929;28;20044;-62
2023/08/26 05:16:07;;;;;;;17.33;11.55;;;18.20;99.90;;;;;;5089282;28;20048;-62
2023/08/26 05:18:35;;;;;;;22.88;13.25;;;18.20;99.90;;;;;;5082982;28;20119;-62
2023/08/26 05:21:02;;;;;;;22.20;13.10;;;18.20;99.90;;;;;;5065034;28;20136;-63
2023/08/26 05:23:31;;;;;;;22.23;12.63;;;18.20;99.90;;;;;;5084480;28;20041;-62
2023/08/26 05:25:58;;;;;;;21.25;12.48;;;18.20;99.90;;;;;;5061595;28;20079;-61
2023/08/26 05:28:26;;;;;;;18.23;11.82;;;18.10;99.90;;;;;;5068535;28;20528;-61
2023/08/26 05:30:53;;;;;;;20.00;11.30;;;18.20;99.90;;;;;;5060119;28;20421;-62
2023/08/26 05:33:20;;;;;;;18.95;10.68;;;18.10;99.90;;;;;;5059718;28;20056;-62
2023/08/26 05:35:47;;;;;;;15.25;9.80;;;18.00;99.90;;;;;;5068177;28;20076;-62
2023/08/26 05:38:13;;;;;;;18.92;11.55;;;18.10;99.90;;;;;;5063878;28;20087;-62
2023/08/26 05:40:42;;;;;;;22.58;12.15;;;18.10;99.90;;;;;;5066362;28;20072;-62
2023/08/26 05:43:10;;;;;;;15.85;11.05;;;18.20;99.90;;;;;;5089023;28;20464;-62
2023/08/26 05:45:37;;;;;;;23.15;11.93;;;18.20;99.90;;;;;;5065719;28;20043;-62
2023/08/26 05:48:04;;;;;;;15.95;10.73;;;18.20;99.90;;;;;;5069278;28;20440;-60
2023/08/26 05:50:31;;;;;;;15.82;9.82;;;18.30;99.90;;;;;;5059905;28;20047;-60
2023/08/26 05:52:58;;;;;;;15.45;10.75;;;18.30;99.90;;;;;;5069244;28;20048;-61
2023/08/26 05:55:25;;;;;;;13.68;9.05;;;18.30;99.90;;;;;;5065515;28;20048;-60
2023/08/26 05:57:52;;;;;;;26.52;10.48;;;18.40;99.90;;;;;;5064123;28;20131;-62
2023/08/26 06:00:19;;;;;;;14.35;9.57;;;18.50;99.90;;;;;;5064127;28;20059;-61
2023/08/26 06:02:48;;;;;;;11.75;8.25;;;18.50;99.90;;;;;;5065128;28;20068;-61
2023/08/26 06:05:16;;;;;;;12.57;8.85;;;18.60;99.90;;;;;;5069261;28;20094;-62
2023/08/26 06:07:45;;;;;;;14.82;9.27;;;18.60;99.90;;;;;;5059282;28;20072;-61
2023/08/26 06:10:13;;;;;;;13.30;8.07;;;18.70;99.90;;;;;;5065887;28;20041;-62
2023/08/26 06:12:41;;;;;;;10.70;8.07;;;18.70;99.90;;;;;;5072820;28;20044;-62
2023/08/26 06:15:11;;;;;;;13.90;9.00;;;18.80;99.90;;;;;;5063043;28;20044;-61
2023/08/26 06:17:41;;;;;;;14.23;7.95;;;18.80;99.90;;;;;;5066864;28;20051;-62
2023/08/26 06:20:10;;;;;;;12.80;7.32;;;18.90;99.90;;;;;;5066991;28;20554;-62
2023/08/26 06:22:38;;;;;;;9.50;7.10;;;18.80;99.90;;;;;;5076425;28;20467;-62
2023/08/26 06:25:05;;;;;;;12.60;7.55;;;18.80;99.90;;;;;;5065533;28;20511;-62
2023/08/26 06:27:32;;;;;;;13.93;8.25;;;18.70;99.90;;;;;;5065366;28;20043;-62
2023/08/26 06:30:02;;;;;;;14.45;8.32;;;18.80;99.90;;;;;;5063564;28;20075;-62
2023/08/26 06:32:31;;;;;;;15.48;8.75;;;18.80;99.90;;;;;;5063127;28;20048;-61
2023/08/26 06:34:58;;;;;;;11.68;7.88;;;18.80;99.90;;;;;;5077622;28;20044;-62
2023/08/26 06:37:25;;;;;;;14.35;8.35;;;18.90;99.90;;;;;;5067498;28;20128;-62
2023/08/26 06:39:51;;;;;;;11.23;8.57;;;19.00;99.90;;;;;;5092065;28;20055;-62
2023/08/26 06:42:18;;;;;;;10.93;5.97;;;19.10;99.90;;;;;;5067960;28;20044;-61
2023/08/26 06:44:54;;;;;;;8.88;6.18;;;19.20;99.90;;;;;;5066313;28;20041;-63
2023/08/26 06:47:21;;;;;;;8.48;5.75;;;19.30;99.90;;;;;;5075011;28;20120;-63
2023/08/26 06:49:49;;;;;;;10.38;5.50;;;19.40;99.90;;;;;;5071206;28;20090;-62
2023/08/26 06:52:16;;;;;;;7.28;5.28;;;19.50;99.90;;;;;;5084906;28;20119;-62
2023/08/26 06:54:42;;;;;;;8.70;5.70;;;19.60;99.90;;;;;;5093553;28;20051;-62
2023/08/26 06:57:09;;;;;;;13.88;5.40;;;19.70;99.90;;;;;;5071952;28;20059;-61
2023/08/26 06:59:36;;;;;;;8.43;6.55;;;19.80;99.90;;;;;;5087904;28;20424;-62
2023/08/26 07:02:05;;;;;;;9.88;6.43;;;19.90;99.90;;;;;;5085893;28;20044;-61
2023/08/26 07:04:32;;;;;;;8.07;6.63;;;19.90;99.90;;;;;;5086325;28;20046;-62
2023/08/26 07:06:58;;;;;;;9.00;6.10;;;19.80;99.90;;;;;;5082654;28;20040;-63
2023/08/26 07:09:25;;;;;;;8.98;6.50;;;19.90;99.90;;;;;;5085622;28;20036;-63
2023/08/26 07:11:52;;;;;;;7.68;5.97;;;20.00;99.90;;;;;;5093512;28;20421;-62
2023/08/26 07:14:19;;;;;;;5.88;4.05;;;20.10;99.90;;;;;;5093826;28;20040;-61
2023/08/26 07:16:45;;;;;;;6.38;4.80;;;20.20;99.90;;;;;;5084938;28;20047;-62
2023/08/26 07:19:13;;;;;;;7.97;5.90;;;20.30;99.90;;;;;;5085886;28;20202;-63
2023/08/26 07:21:39;;;;;;;7.63;6.40;;;20.40;99.90;;;;;;5088377;28;20052;-62
2023/08/26 07:24:06;;;;;;;9.38;6.65;;;20.50;99.90;;;;;;5091019;28;20501;-62
2023/08/26 07:26:33;;;;;;;8.35;6.90;;;20.50;99.90;;;;;;5086426;28;20358;-62
2023/08/26 07:29:00;;;;;;;9.57;6.90;;;20.60;99.90;;;;;;5084815;28;20041;-61
2023/08/26 07:31:27;;;;;;;10.80;7.43;;;20.60;99.90;;;;;;5084752;28;20032;-62
2023/08/26 07:33:55;;;;;;;13.35;7.63;;;20.60;99.90;;;;;;5092955;28;20113;-62
2023/08/26 07:36:21;;;;;;;9.30;7.65;;;20.50;99.90;;;;;;5083353;28;20044;-62
2023/08/26 07:38:48;;;;;;;12.65;6.95;;;20.60;99.90;;;;;;5093218;28;20044;-61
2023/08/26 07:41:15;;;;;;;12.45;7.32;;;20.60;99.90;;;;;;5083398;28;20516;-62
2023/08/26 07:43:42;;;;;;;11.07;8.50;;;20.70;99.90;;;;;;5081213;28;20049;-62
2023/08/26 07:46:09;;;;;;;12.88;7.22;;;20.70;99.90;;;;;;5090089;28;20044;-61
2023/08/26 07:48:38;;;;;;;10.27;7.20;;;20.70;99.90;;;;;;5085572;28;20052;-61
2023/08/26 07:51:05;;;;;;;11.35;7.70;;;20.80;99.90;;;;;;5081875;28;20045;-62
2023/08/26 07:53:32;;;;;;;12.27;7.57;;;20.90;99.90;;;;;;5092992;28;20040;-61
2023/08/26 07:55:59;;;;;;;10.90;7.90;;;21.00;99.90;;;;;;5091227;28;20111;-62
2023/08/26 07:58:26;;;;;;;10.85;7.88;;;21.30;99.90;;;;;;5081271;28;20051;-62
2023/08/26 08:00:52;;;;;;;11.00;7.05;;;21.60;99.90;;;;;;5081793;28;20044;-62
2023/08/26 08:03:19;;;;;;;9.02;6.97;;;21.80;99.90;;;;;;5072663;28;20493;-62
2023/08/26 08:05:47;;;;;;;8.57;7.10;;;21.90;99.90;;;;;;5086024;28;20481;-63
2023/08/26 08:08:14;;;;;;;9.73;6.82;;;22.10;99.90;;;;;;5092800;28;20036;-62
2023/08/26 08:10:40;;;;;;;7.43;5.82;;;22.10;99.90;;;;;;5073385;28;20059;-61
2023/08/26 08:13:11;;;;;;;7.75;5.20;;;22.00;99.90;;;;;;5084976;28;20048;-62
2023/08/26 08:15:37;;;;;;;8.55;6.13;;;22.00;99.90;;;;;;5083384;28;20051;-62
2023/08/26 08:18:04;;;;;;;9.95;6.22;;;21.80;99.90;;;;;;5090548;28;20042;-62
2023/08/26 08:20:31;;;;;;;7.45;5.63;;;21.40;99.90;;;;;;5084426;28;20036;-62
2023/08/26 08:22:58;;;;;;;8.23;6.13;;;21.10;99.90;;;;;;5084412;28;20051;-60
2023/08/26 08:25:25;;;;;;;;;;;20.90;99.90;;;;;;5093155;28;20044;-63
2023/08/26 08:27:52;;;;;;;10.57;6.22;;;20.80;99.90;;;;;;5085667;28;19989;-60
2023/08/26 08:30:19;;;;;;;7.38;5.70;;;21.00;99.90;;;;;;5080884;28;20143;-61
2023/08/26 08:32:46;;;;;;;10.15;6.80;;;21.40;99.90;;;;;;5080858;28;20046;-61
2023/08/26 08:35:13;;;;;;;10.15;6.60;;;21.80;99.90;;;;;;5081622;28;20079;-60
2023/08/26 08:37:39;;;;;;;9.32;6.40;;;22.20;99.90;;;;;;5091518;28;20048;-63
2023/08/26 08:40:07;;;;;;;10.13;7.00;;;22.50;99.90;;;;;;5083418;28;20039;-62
2023/08/26 08:42:34;;;;;;;7.78;5.82;;;22.90;99.90;;;;;;5066444;28;20040;-62
2023/08/26 08:45:05;;;;;;;9.48;5.88;;;23.20;99.90;;;;;;5074400;28;21609;-63
2023/08/26 08:47:33;;;;;;;8.48;6.00;;;23.30;99.90;;;;;;5083718;28;20135;-62
2023/08/26 08:50:01;;;;;;;10.57;6.60;;;23.30;99.90;;;;;;5091088;28;20040;-61
2023/08/26 08:52:28;;;;;;;6.15;5.32;;;23.40;99.90;;;;;;5092381;28;20043;-63
2023/08/26 08:54:55;;;;;;;8.93;5.65;;;23.30;99.90;;;;;;5083449;28;20048;-63
2023/08/26 08:57:28;;;;;;;7.03;5.75;;;23.30;99.90;;;;;;5083453;28;20044;-63
2023/08/26 08:59:57;;;;;;;6.97;5.20;;;23.50;99.90;;;;;;5083675;28;20043;-63
2023/08/26 09:02:27;;;;;;;9.55;5.47;;;23.50;99.90;;;;;;5089373;28;20032;-63
2023/08/26 09:04:54;;;;;;;7.13;5.47;;;23.50;99.90;;;;;;5091465;28;20040;-60
2023/08/26 09:07:22;;;;;;;6.25;5.45;;;23.50;99.90;;;;;;5091450;28;20040;-63
2023/08/26 09:09:49;;;;;;;8.95;5.35;;;23.40;99.90;;;;;;5084000;28;20040;-63
2023/08/26 09:12:29;;;;;;;7.45;4.88;;;23.50;99.90;;;;;;5081616;28;20397;-62
2023/08/26 09:14:55;;;;;;;8.43;4.72;;;23.60;99.90;;;;;;5085488;28;20050;-62
2023/08/26 09:17:22;;;;;;;8.77;5.15;;;23.70;99.90;;;;;;5083232;28;20408;-63
2023/08/26 09:19:58;;;;;;;9.45;4.72;;;23.90;99.90;;;;;;5086158;28;20048;-63
2023/08/26 09:22:29;;;;;;;6.60;5.05;;;24.10;99.90;;;;;;5086476;28;20130;-63
2023/08/26 09:24:57;;;;;;;7.55;4.80;;;24.50;99.90;;;;;;5086266;28;20039;-62
2023/08/26 09:27:24;;;;;;;5.55;4.93;;;24.70;99.90;;;;;;5080725;28;20047;-63
2023/08/26 09:29:51;;;;;;;6.97;4.60;;;24.80;99.90;;;;;;5079882;28;20127;-63
2023/08/26 09:32:32;;;;;;;9.57;4.65;;;25.00;99.90;;;;;;5088297;28;20052;-63
2023/08/26 09:35:11;;;;;;;6.47;4.72;;;25.40;99.90;;;;;;5079600;28;20048;-61
2023/08/26 09:37:41;;;;;;;8.00;5.05;;;25.70;99.90;;;;;;5082638;28;20107;-62
2023/08/26 09:40:15;;;;;;;9.68;5.25;;;25.70;99.90;;;;;;5091480;28;20509;-63
2023/08/26 09:42:42;;;;;;;6.97;4.30;;;25.50;99.90;;;;;;5079874;28;20110;-63
2023/08/26 09:45:13;;;;;;;7.80;4.18;;;25.50;99.90;;;;;;5087535;28;20036;-63
2023/08/26 09:47:40;;;;;;;6.72;3.88;;;25.50;99.90;;;;;;5083254;28;20401;-63
2023/08/26 09:50:08;;;;;;;3.70;3.40;;;25.50;99.90;;;;;;5075291;28;20040;-63
2023/08/26 09:52:42;;;;;;;6.10;4.15;;;25.40;99.90;;;;;;5083055;28;20038;-63
2023/08/26 09:55:09;;;;;;;5.60;3.40;;;25.70;99.90;;;;;;5088903;28;20052;-63
2023/08/26 09:57:36;;;;;;;6.30;4.05;;;25.80;99.90;;;;;;5082432;28;20048;-63
2023/08/26 10:00:03;;;;;;;;;;;26.20;99.90;;;;;;5082618;28;20047;-63
2023/08/26 10:02:51;;;;;;;4.38;3.97;;;26.10;99.90;;;;;;5086035;28;20023;-63
2023/08/26 10:05:22;;;;;;;6.40;4.20;;;25.90;99.90;;;;;;5080039;28;20048;-61
2023/08/26 10:07:50;;;;;;;6.78;4.72;;;25.60;99.90;;;;;;5088818;28;20047;-63
2023/08/26 10:10:42;;;;;;;5.78;4.68;;;25.30;99.90;;;;;;5082562;28;20086;-63
2023/08/26 10:13:09;;;;;;;6.68;4.55;;;25.20;99.90;;;;;;5090167;28;20403;-63
2023/08/26 10:15:36;;;;;;;7.20;4.78;;;25.30;99.90;;;;;;5090799;28;20048;-63
2023/08/26 10:18:13;;;;;;;;;;;25.40;99.90;;;;;;5082610;28;20366;-63
2023/08/26 10:20:41;;;;;;;5.32;4.75;;;25.10;99.90;;;;;;5083080;28;19970;-63
2023/08/26 10:23:10;;;;;;;5.45;3.80;;;25.00;99.90;;;;;;5089448;28;20047;-63
2023/08/26 10:25:37;;;;;;;4.40;4.00;;;25.00;99.90;;;;;;5082265;28;20054;-63
2023/08/26 10:28:05;;;;;;;5.57;3.78;;;25.30;99.90;;;;;;5082805;28;20519;-63
2023/08/26 10:30:32;;;;;;;5.40;3.55;;;25.50;99.90;;;;;;5082167;28;20044;-61
2023/08/26 10:33:00;;;;;;;;;;;25.70;99.90;;;;;;5081780;28;20494;-62
2023/08/26 10:35:27;;;;;;;4.22;3.67;;;26.00;99.90;;;;;;5079689;28;19926;-63
2023/08/26 10:38:14;;;;;;;4.63;4.18;;;25.70;99.90;;;;;;5070309;28;20063;-61
2023/08/26 10:40:41;;;;;;;6.15;3.95;;;25.70;99.90;;;;;;5077163;28;20569;-63
2023/08/26 10:43:12;;;;;;;5.65;3.83;;;25.80;99.90;;;;;;5078553;28;20520;-63
2023/08/26 10:45:47;;;;;;;4.43;3.85;;;25.90;99.90;;;;;;5086663;28;20047;-62
2023/08/26 10:48:14;;;;;;;4.63;3.35;;;26.00;99.90;;;;;;5078749;28;20041;-62
2023/08/26 10:50:44;;;;;;;7.00;3.70;;;26.10;99.90;;;;;;5081702;28;20036;-63
2023/08/26 10:53:21;;;;;;;5.32;4.05;;;26.20;99.90;;;;;;5082554;28;20485;-63
2023/08/26 10:55:52;;;;;;;;;;;26.30;99.90;;;;;;5075737;28;20050;-63
2023/08/26 10:58:19;;;;;;;5.03;3.65;;;26.30;99.90;;;;;;5082665;28;19920;-63
2023/08/26 11:00:52;;;;;;;5.55;3.60;;;26.50;99.90;;;;;;5083048;28;20040;-62
2023/08/26 11:03:22;;;;;;;5.68;3.45;;;26.40;99.90;;;;;;5082984;28;20049;-64
2023/08/26 11:06:08;;;;;;;5.70;3.72;;;26.60;99.90;;;;;;5082370;28;20107;-63
2023/08/26 11:08:37;;;;;;;5.40;3.33;;;27.00;99.90;;;;;;5080822;28;20044;-63
2023/08/26 11:11:09;;;;;;;5.30;3.70;;;27.10;99.90;;;;;;5090583;28;20048;-62
2023/08/26 11:13:36;;;;;;;4.97;3.72;;;27.20;99.90;;;;;;5079582;28;20037;-63
2023/08/26 11:16:03;;;;;;;;;;;27.30;99.90;;;;;;5078651;28;20040;-63
2023/08/26 11:18:31;;;;;;;8.63;3.88;;;27.10;99.90;;;;;;5087222;28;19920;-63
2023/08/26 11:21:04;;;;;;;9.82;3.97;;;27.00;99.90;;;;;;5090327;28;20089;-63
2023/08/26 11:23:32;;;;;;;6.07;3.72;;;26.80;99.90;;;;;;5091891;28;20044;-63
2023/08/26 11:25:59;;;;;;;7.38;3.83;;;26.80;99.90;;;;;;5079890;28;20047;-63
2023/08/26 11:28:31;;;;;;;4.72;3.30;;;27.00;99.90;;;;;;5072097;28;20052;-63
2023/08/26 11:30:58;;;;;;;6.40;3.70;;;27.20;99.90;;;;;;5071368;28;20044;-63
2023/08/26 11:33:26;;;;;;;3.83;3.15;;;27.00;99.90;;;;;;5082022;28;20048;-63
2023/08/26 11:35:53;;;;;;;7.75;3.47;;;27.10;99.90;;;;;;5091659;28;20051;-63
2023/08/26 11:38:34;;;;;;;9.32;3.70;;;27.00;99.90;;;;;;5084620;28;20056;-63
2023/08/26 11:41:09;;;;;;;6.28;3.80;;;26.90;99.90;;;;;;5089534;28;20043;-63
2023/08/26 11:43:36;;;;;;;3.80;3.38;;;26.90;99.90;;;;;;5085016;28;20039;-61
2023/08/26 11:46:07;;;;;;;3.55;3.05;;;26.90;99.90;;;;;;5092250;28;20036;-63
2023/08/26 11:48:36;;;;;;;4.25;3.28;;;27.00;99.90;;;;;;5083027;28;20048;-63
2023/08/26 11:51:03;;;;;;;4.32;3.30;;;26.70;99.90;;;;;;5085243;28;20101;-62
2023/08/26 11:53:30;;;;;;;5.20;3.83;;;26.90;99.90;;;;;;5092334;28;20113;-63
2023/08/26 11:55:57;;;;;;;5.55;3.65;;;27.10;99.90;;;;;;5093627;28;20044;-63
2023/08/26 11:58:26;;;;;;;4.68;3.40;;;27.00;99.90;;;;;;5073776;28;20051;-63
2023/08/26 12:00:55;;;;;;;5.25;3.20;;;26.90;99.90;;;;;;5085934;28;20052;-63
2023/08/26 12:03:23;;;;;;;4.38;3.15;;;27.10;99.90;;;;;;5084206;28;20048;-63
2023/08/26 12:05:52;;;;;;;4.95;3.20;;;27.30;99.90;;;;;;5084336;28;20040;-63
2023/08/26 12:08:21;;;;;;;4.53;3.25;;;27.40;99.90;;;;;;5082898;28;20082;-62
2023/08/26 12:10:50;;;;;;;5.00;3.35;;;27.50;99.90;;;;;;5077474;28;20071;-63
2023/08/26 12:13:16;;;;;;;4.03;2.92;;;27.70;99.90;;;;;;5082844;28;20044;-63
2023/08/26 12:15:44;;;;;;;5.15;3.13;;;27.80;99.90;;;;;;5089253;28;20040;-63
2023/08/26 12:18:11;;;;;;;4.40;3.03;;;27.80;99.90;;;;;;5084833;28;20082;-63
2023/08/26 12:20:44;;;;;;;4.78;2.90;;;27.90;99.90;;;;;;5092523;28;20036;-62
2023/08/26 12:23:11;;;;;;;4.13;3.67;;;27.70;99.90;;;;;;5066765;28;20127;-62
2023/08/26 12:25:41;;;;;;;5.15;3.03;;;27.50;99.90;;;;;;5080838;28;20052;-63
2023/08/26 12:28:14;;;;;;;3.95;3.13;;;27.50;99.90;;;;;;5070649;28;20040;-63
2023/08/26 12:30:43;;;;;;;3.70;3.03;;;27.70;99.90;;;;;;5089755;28;20048;-63
2023/08/26 12:33:10;;;;;;;4.07;2.97;;;28.00;99.90;;;;;;5092439;28;20525;-61
2023/08/26 12:35:53;;;;;;;3.65;2.97;;;28.10;99.90;;;;;;5084483;28;20044;-63
2023/08/26 12:38:22;;;;;;;4.13;3.15;;;28.20;99.90;;;;;;5083408;28;20036;-63
2023/08/26 12:40:49;;;;;;;3.45;3.13;;;27.90;99.90;;;;;;5076609;28;20536;-63
2023/08/26 12:43:18;;;;;;;4.53;2.97;;;28.00;99.90;;;;;;5091344;28;20442;-63
2023/08/26 12:45:46;;;;;;;3.55;3.25;;;28.20;99.90;;;;;;5084406;28;20051;-63